sensor_id;sensor_type;location;lat;lon;timestamp;P1;durP1;ratioP1;P2;durP2;ratioP2
51654;SDS011;37732;53.106;7.030;2023-05-07T00:01:31;25.48;;;22.60;;
51654;SDS011;37732;53.106;7.030;2023-05-07T00:03:57;27.73;;;23.30;;
51654;SDS011;37732;53.106;7.030;2023-05-07T00:06:22;25.90;;;23.30;;
51654;SDS011;37732;53.106;7.030;2023-05-07T00:08:49;26.73;;;23.95;;
51654;SDS011;37732;53.106;7.030;2023-05-07T00:11:15;25.20;;;22.55;;
51654;SDS011;37732;53.106;7.030;2023-05-07T00:13:40;27.95;;;23.63;;
51654;SDS011;37732;53.106;7.030;2023-05-07T00:16:06;25.10;;;22.50;;
51654;SDS011;37732;53.106;7.030;2023-05-07T00:18:32;27.25;;;24.33;;
51654;SDS011;37732;53.106;7.030;2023-05-07T00:20:57;26.67;;;23.70;;
51654;SDS011;37732;53.106;7.030;2023-05-07T00:23:23;29.13;;;26.25;;
51654;SDS011;37732;53.106;7.030;2023-05-07T00:25:49;27.27;;;24.48;;
51654;SDS011;37732;53.106;7.030;2023-05-07T00:28:14;28.33;;;25.52;;
51654;SDS011;37732;53.106;7.030;2023-05-07T00:30:40;26.95;;;24.13;;
51654;SDS011;37732;53.106;7.030;2023-05-07T00:33:06;27.63;;;24.70;;
51654;SDS011;37732;53.106;7.030;2023-05-07T00:35:32;27.98;;;24.77;;
51654;SDS011;37732;53.106;7.030;2023-05-07T00:37:58;28.90;;;24.10;;
51654;SDS011;37732;53.106;7.030;2023-05-07T00:40:24;25.73;;;23.00;;
51654;SDS011;37732;53.106;7.030;2023-05-07T00:42:49;24.75;;;22.17;;
51654;SDS011;37732;53.106;7.030;2023-05-07T00:45:15;25.48;;;22.77;;
51654;SDS011;37732;53.106;7.030;2023-05-07T00:47:42;27.60;;;24.13;;
51654;SDS011;37732;53.106;7.030;2023-05-07T00:50:08;25.17;;;22.55;;
51654;SDS011;37732;53.106;7.030;2023-05-07T00:52:37;26.75;;;23.80;;
51654;SDS011;37732;53.106;7.030;2023-05-07T00:55:04;27.70;;;24.77;;
51654;SDS011;37732;53.106;7.030;2023-05-07T00:57:37;26.80;;;23.65;;
51654;SDS011;37732;53.106;7.030;2023-05-07T01:00:05;29.90;;;25.38;;
51654;SDS011;37732;53.106;7.030;2023-05-07T01:03:00;26.35;;;23.67;;
51654;SDS011;37732;53.106;7.030;2023-05-07T01:05:25;26.50;;;23.73;;
51654;SDS011;37732;53.106;7.030;2023-05-07T01:07:53;28.15;;;24.73;;
51654;SDS011;37732;53.106;7.030;2023-05-07T01:10:20;28.17;;;25.15;;
51654;SDS011;37732;53.106;7.030;2023-05-07T01:12:47;30.15;;;26.33;;
51654;SDS011;37732;53.106;7.030;2023-05-07T01:15:14;28.02;;;25.17;;
51654;SDS011;37732;53.106;7.030;2023-05-07T01:17:40;27.95;;;24.60;;
51654;SDS011;37732;53.106;7.030;2023-05-07T01:20:07;28.60;;;25.63;;
51654;SDS011;37732;53.106;7.030;2023-05-07T01:22:35;28.45;;;25.58;;
51654;SDS011;37732;53.106;7.030;2023-05-07T01:25:06;30.75;;;27.25;;
51654;SDS011;37732;53.106;7.030;2023-05-07T01:27:33;28.35;;;25.27;;
51654;SDS011;37732;53.106;7.030;2023-05-07T01:30:00;29.55;;;25.88;;
51654;SDS011;37732;53.106;7.030;2023-05-07T01:32:36;30.23;;;27.05;;
51654;SDS011;37732;53.106;7.030;2023-05-07T01:35:09;30.50;;;26.42;;
51654;SDS011;37732;53.106;7.030;2023-05-07T01:37:37;32.35;;;27.33;;
51654;SDS011;37732;53.106;7.030;2023-05-07T01:40:04;32.72;;;28.17;;
51654;SDS011;37732;53.106;7.030;2023-05-07T01:42:32;30.75;;;27.45;;
51654;SDS011;37732;53.106;7.030;2023-05-07T01:44:58;31.38;;;26.40;;
51654;SDS011;37732;53.106;7.030;2023-05-07T01:47:24;32.08;;;28.45;;
51654;SDS011;37732;53.106;7.030;2023-05-07T01:49:51;31.52;;;28.13;;
51654;SDS011;37732;53.106;7.030;2023-05-07T01:52:18;32.67;;;28.00;;
51654;SDS011;37732;53.106;7.030;2023-05-07T01:54:43;32.22;;;28.80;;
51654;SDS011;37732;53.106;7.030;2023-05-07T01:57:09;30.80;;;27.63;;
51654;SDS011;37732;53.106;7.030;2023-05-07T01:59:35;35.78;;;31.75;;
51654;SDS011;37732;53.106;7.030;2023-05-07T02:02:01;34.97;;;31.27;;
51654;SDS011;37732;53.106;7.030;2023-05-07T02:04:26;33.83;;;29.80;;
51654;SDS011;37732;53.106;7.030;2023-05-07T02:06:52;34.22;;;30.48;;
51654;SDS011;37732;53.106;7.030;2023-05-07T02:09:18;38.83;;;29.63;;
51654;SDS011;37732;53.106;7.030;2023-05-07T02:11:44;31.42;;;27.98;;
51654;SDS011;37732;53.106;7.030;2023-05-07T02:14:11;33.25;;;29.67;;
51654;SDS011;37732;53.106;7.030;2023-05-07T02:16:36;32.40;;;27.80;;
51654;SDS011;37732;53.106;7.030;2023-05-07T02:19:02;32.35;;;28.95;;
51654;SDS011;37732;53.106;7.030;2023-05-07T02:21:27;33.70;;;29.48;;
51654;SDS011;37732;53.106;7.030;2023-05-07T02:23:54;34.20;;;29.50;;
51654;SDS011;37732;53.106;7.030;2023-05-07T02:26:20;34.45;;;29.77;;
51654;SDS011;37732;53.106;7.030;2023-05-07T02:28:46;32.83;;;29.30;;
51654;SDS011;37732;53.106;7.030;2023-05-07T02:31:12;34.58;;;30.98;;
51654;SDS011;37732;53.106;7.030;2023-05-07T02:33:38;33.03;;;29.52;;
51654;SDS011;37732;53.106;7.030;2023-05-07T02:36:10;35.17;;;29.63;;
51654;SDS011;37732;53.106;7.030;2023-05-07T02:38:36;32.23;;;28.53;;
51654;SDS011;37732;53.106;7.030;2023-05-07T02:41:02;35.65;;;30.70;;
51654;SDS011;37732;53.106;7.030;2023-05-07T02:43:27;36.10;;;32.22;;
51654;SDS011;37732;53.106;7.030;2023-05-07T02:46:03;33.80;;;30.23;;
51654;SDS011;37732;53.106;7.030;2023-05-07T02:48:30;32.10;;;28.65;;
51654;SDS011;37732;53.106;7.030;2023-05-07T02:50:56;33.13;;;29.67;;
51654;SDS011;37732;53.106;7.030;2023-05-07T02:53:23;33.92;;;30.23;;
51654;SDS011;37732;53.106;7.030;2023-05-07T02:55:55;31.98;;;28.67;;
51654;SDS011;37732;53.106;7.030;2023-05-07T02:58:22;32.25;;;28.83;;
51654;SDS011;37732;53.106;7.030;2023-05-07T03:00:48;33.60;;;29.90;;
51654;SDS011;37732;53.106;7.030;2023-05-07T03:03:14;34.80;;;31.10;;
51654;SDS011;37732;53.106;7.030;2023-05-07T03:05:40;32.30;;;27.85;;
51654;SDS011;37732;53.106;7.030;2023-05-07T03:08:06;33.80;;;30.20;;
51654;SDS011;37732;53.106;7.030;2023-05-07T03:10:32;34.10;;;30.42;;
51654;SDS011;37732;53.106;7.030;2023-05-07T03:12:57;35.30;;;31.52;;
51654;SDS011;37732;53.106;7.030;2023-05-07T03:15:23;32.97;;;29.52;;
51654;SDS011;37732;53.106;7.030;2023-05-07T03:17:49;32.83;;;29.42;;
51654;SDS011;37732;53.106;7.030;2023-05-07T03:20:15;34.88;;;31.17;;
51654;SDS011;37732;53.106;7.030;2023-05-07T03:22:41;32.85;;;29.27;;
51654;SDS011;37732;53.106;7.030;2023-05-07T03:25:06;32.80;;;29.17;;
51654;SDS011;37732;53.106;7.030;2023-05-07T03:27:33;32.35;;;28.02;;
51654;SDS011;37732;53.106;7.030;2023-05-07T03:29:59;31.92;;;28.45;;
51654;SDS011;37732;53.106;7.030;2023-05-07T03:32:25;30.35;;;27.25;;
51654;SDS011;37732;53.106;7.030;2023-05-07T03:34:51;30.42;;;27.00;;
51654;SDS011;37732;53.106;7.030;2023-05-07T03:37:17;33.72;;;28.52;;
51654;SDS011;37732;53.106;7.030;2023-05-07T03:39:43;28.40;;;25.45;;
51654;SDS011;37732;53.106;7.030;2023-05-07T03:42:09;31.33;;;28.15;;
51654;SDS011;37732;53.106;7.030;2023-05-07T03:44:34;29.35;;;26.38;;
51654;SDS011;37732;53.106;7.030;2023-05-07T03:47:01;33.65;;;29.98;;
51654;SDS011;37732;53.106;7.030;2023-05-07T03:49:28;30.05;;;27.05;;
51654;SDS011;37732;53.106;7.030;2023-05-07T03:51:53;30.67;;;27.25;;
51654;SDS011;37732;53.106;7.030;2023-05-07T03:54:19;28.92;;;25.92;;
51654;SDS011;37732;53.106;7.030;2023-05-07T03:56:45;28.23;;;25.23;;
51654;SDS011;37732;53.106;7.030;2023-05-07T03:59:12;31.35;;;28.02;;
51654;SDS011;37732;53.106;7.030;2023-05-07T04:01:38;29.45;;;26.45;;
51654;SDS011;37732;53.106;7.030;2023-05-07T04:04:04;31.88;;;28.48;;
51654;SDS011;37732;53.106;7.030;2023-05-07T04:06:30;30.92;;;27.55;;
51654;SDS011;37732;53.106;7.030;2023-05-07T04:08:56;30.33;;;25.98;;
51654;SDS011;37732;53.106;7.030;2023-05-07T04:11:22;29.42;;;26.42;;
51654;SDS011;37732;53.106;7.030;2023-05-07T04:13:48;28.02;;;25.23;;
51654;SDS011;37732;53.106;7.030;2023-05-07T04:16:13;28.67;;;25.67;;
51654;SDS011;37732;53.106;7.030;2023-05-07T04:18:40;28.40;;;25.23;;
51654;SDS011;37732;53.106;7.030;2023-05-07T04:21:06;29.30;;;26.27;;
51654;SDS011;37732;53.106;7.030;2023-05-07T04:23:43;29.30;;;26.30;;
51654;SDS011;37732;53.106;7.030;2023-05-07T04:26:08;29.70;;;26.52;;
51654;SDS011;37732;53.106;7.030;2023-05-07T04:28:34;28.08;;;25.17;;
51654;SDS011;37732;53.106;7.030;2023-05-07T04:31:00;27.58;;;24.75;;
51654;SDS011;37732;53.106;7.030;2023-05-07T04:33:26;28.60;;;25.52;;
51654;SDS011;37732;53.106;7.030;2023-05-07T04:35:52;27.30;;;24.38;;
51654;SDS011;37732;53.106;7.030;2023-05-07T04:38:18;26.58;;;23.88;;
51654;SDS011;37732;53.106;7.030;2023-05-07T04:40:44;28.92;;;26.02;;
51654;SDS011;37732;53.106;7.030;2023-05-07T04:43:09;30.92;;;27.73;;
51654;SDS011;37732;53.106;7.030;2023-05-07T04:45:35;28.60;;;25.50;;
51654;SDS011;37732;53.106;7.030;2023-05-07T04:48:02;26.85;;;24.05;;
51654;SDS011;37732;53.106;7.030;2023-05-07T04:50:27;28.10;;;25.02;;
51654;SDS011;37732;53.106;7.030;2023-05-07T04:52:53;26.58;;;23.85;;
51654;SDS011;37732;53.106;7.030;2023-05-07T04:55:19;26.35;;;23.40;;
51654;SDS011;37732;53.106;7.030;2023-05-07T04:57:44;26.85;;;24.00;;
51654;SDS011;37732;53.106;7.030;2023-05-07T05:00:10;25.77;;;23.17;;
51654;SDS011;37732;53.106;7.030;2023-05-07T05:02:39;26.15;;;23.10;;
51654;SDS011;37732;53.106;7.030;2023-05-07T05:05:06;24.55;;;21.17;;
51654;SDS011;37732;53.106;7.030;2023-05-07T05:07:32;26.48;;;23.75;;
51654;SDS011;37732;53.106;7.030;2023-05-07T05:09:58;25.08;;;22.48;;
51654;SDS011;37732;53.106;7.030;2023-05-07T05:12:24;28.08;;;25.17;;
51654;SDS011;37732;53.106;7.030;2023-05-07T05:14:50;24.40;;;21.85;;
51654;SDS011;37732;53.106;7.030;2023-05-07T05:17:16;25.52;;;22.98;;
51654;SDS011;37732;53.106;7.030;2023-05-07T05:19:41;26.38;;;23.70;;
51654;SDS011;37732;53.106;7.030;2023-05-07T05:22:07;25.05;;;22.45;;
51654;SDS011;37732;53.106;7.030;2023-05-07T05:24:33;25.35;;;22.85;;
51654;SDS011;37732;53.106;7.030;2023-05-07T05:26:59;26.33;;;23.67;;
51654;SDS011;37732;53.106;7.030;2023-05-07T05:29:26;25.95;;;23.27;;
51654;SDS011;37732;53.106;7.030;2023-05-07T05:31:52;25.80;;;23.20;;
51654;SDS011;37732;53.106;7.030;2023-05-07T05:34:17;25.15;;;22.60;;
51654;SDS011;37732;53.106;7.030;2023-05-07T05:36:44;24.75;;;22.25;;
51654;SDS011;37732;53.106;7.030;2023-05-07T05:39:10;25.48;;;22.90;;
51654;SDS011;37732;53.106;7.030;2023-05-07T05:41:36;26.20;;;23.63;;
51654;SDS011;37732;53.106;7.030;2023-05-07T05:44:02;24.67;;;22.17;;
51654;SDS011;37732;53.106;7.030;2023-05-07T05:46:27;23.27;;;20.83;;
51654;SDS011;37732;53.106;7.030;2023-05-07T05:48:53;23.98;;;21.40;;
51654;SDS011;37732;53.106;7.030;2023-05-07T05:51:20;28.73;;;25.83;;
51654;SDS011;37732;53.106;7.030;2023-05-07T05:53:46;25.15;;;22.60;;
51654;SDS011;37732;53.106;7.030;2023-05-07T05:56:12;23.73;;;21.33;;
51654;SDS011;37732;53.106;7.030;2023-05-07T05:58:38;24.25;;;21.83;;
51654;SDS011;37732;53.106;7.030;2023-05-07T06:01:04;25.60;;;23.00;;
51654;SDS011;37732;53.106;7.030;2023-05-07T06:03:30;26.88;;;24.05;;
51654;SDS011;37732;53.106;7.030;2023-05-07T06:05:57;25.20;;;22.70;;
51654;SDS011;37732;53.106;7.030;2023-05-07T06:08:23;25.42;;;22.52;;
51654;SDS011;37732;53.106;7.030;2023-05-07T06:10:49;25.08;;;22.48;;
51654;SDS011;37732;53.106;7.030;2023-05-07T06:13:15;25.63;;;22.95;;
51654;SDS011;37732;53.106;7.030;2023-05-07T06:15:41;25.65;;;22.85;;
51654;SDS011;37732;53.106;7.030;2023-05-07T06:18:06;24.63;;;21.83;;
51654;SDS011;37732;53.106;7.030;2023-05-07T06:20:32;27.40;;;24.40;;
51654;SDS011;37732;53.106;7.030;2023-05-07T06:22:58;25.08;;;22.45;;
51654;SDS011;37732;53.106;7.030;2023-05-07T06:25:23;27.85;;;24.95;;
51654;SDS011;37732;53.106;7.030;2023-05-07T06:27:49;26.30;;;23.45;;
51654;SDS011;37732;53.106;7.030;2023-05-07T06:30:14;26.48;;;23.65;;
51654;SDS011;37732;53.106;7.030;2023-05-07T06:32:41;26.52;;;23.73;;
51654;SDS011;37732;53.106;7.030;2023-05-07T06:35:06;27.70;;;23.70;;
51654;SDS011;37732;53.106;7.030;2023-05-07T06:37:32;26.48;;;23.75;;
51654;SDS011;37732;53.106;7.030;2023-05-07T06:39:58;25.95;;;22.90;;
51654;SDS011;37732;53.106;7.030;2023-05-07T06:42:24;25.50;;;22.75;;
51654;SDS011;37732;53.106;7.030;2023-05-07T06:44:50;25.88;;;23.08;;
51654;SDS011;37732;53.106;7.030;2023-05-07T06:47:15;27.67;;;24.23;;
51654;SDS011;37732;53.106;7.030;2023-05-07T06:49:41;26.20;;;23.42;;
51654;SDS011;37732;53.106;7.030;2023-05-07T06:52:07;26.00;;;23.17;;
51654;SDS011;37732;53.106;7.030;2023-05-07T06:54:32;28.15;;;25.10;;
51654;SDS011;37732;53.106;7.030;2023-05-07T06:56:58;30.73;;;27.55;;
51654;SDS011;37732;53.106;7.030;2023-05-07T06:59:24;28.92;;;25.60;;
51654;SDS011;37732;53.106;7.030;2023-05-07T07:01:50;28.75;;;25.75;;
51654;SDS011;37732;53.106;7.030;2023-05-07T07:04:15;26.00;;;23.20;;
51654;SDS011;37732;53.106;7.030;2023-05-07T07:06:41;25.48;;;22.23;;
51654;SDS011;37732;53.106;7.030;2023-05-07T07:09:07;28.15;;;24.80;;
51654;SDS011;37732;53.106;7.030;2023-05-07T07:11:32;31.02;;;25.10;;
51654;SDS011;37732;53.106;7.030;2023-05-07T07:13:58;24.58;;;21.33;;
51654;SDS011;37732;53.106;7.030;2023-05-07T07:16:24;25.65;;;22.85;;
51654;SDS011;37732;53.106;7.030;2023-05-07T07:18:49;28.83;;;25.52;;
51654;SDS011;37732;53.106;7.030;2023-05-07T07:21:16;27.02;;;24.13;;
51654;SDS011;37732;53.106;7.030;2023-05-07T07:23:41;25.13;;;22.40;;
51654;SDS011;37732;53.106;7.030;2023-05-07T07:26:07;25.88;;;23.08;;
51654;SDS011;37732;53.106;7.030;2023-05-07T07:28:33;25.58;;;22.98;;
51654;SDS011;37732;53.106;7.030;2023-05-07T07:30:58;27.42;;;23.63;;
51654;SDS011;37732;53.106;7.030;2023-05-07T07:33:25;27.00;;;24.10;;
51654;SDS011;37732;53.106;7.030;2023-05-07T07:35:50;24.95;;;22.20;;
51654;SDS011;37732;53.106;7.030;2023-05-07T07:38:16;25.85;;;23.25;;
51654;SDS011;37732;53.106;7.030;2023-05-07T07:40:41;26.67;;;23.73;;
51654;SDS011;37732;53.106;7.030;2023-05-07T07:43:08;27.02;;;23.85;;
51654;SDS011;37732;53.106;7.030;2023-05-07T07:45:34;26.92;;;24.17;;
51654;SDS011;37732;53.106;7.030;2023-05-07T07:48:00;26.88;;;24.08;;
51654;SDS011;37732;53.106;7.030;2023-05-07T07:50:26;26.50;;;23.70;;
51654;SDS011;37732;53.106;7.030;2023-05-07T07:52:51;25.75;;;22.65;;
51654;SDS011;37732;53.106;7.030;2023-05-07T07:55:19;26.85;;;23.23;;
51654;SDS011;37732;53.106;7.030;2023-05-07T07:57:47;28.33;;;23.33;;
51654;SDS011;37732;53.106;7.030;2023-05-07T08:00:14;25.50;;;22.83;;
51654;SDS011;37732;53.106;7.030;2023-05-07T08:02:41;25.90;;;23.15;;
51654;SDS011;37732;53.106;7.030;2023-05-07T08:05:07;27.55;;;24.02;;
51654;SDS011;37732;53.106;7.030;2023-05-07T08:07:33;25.67;;;22.63;;
51654;SDS011;37732;53.106;7.030;2023-05-07T08:09:59;26.23;;;23.45;;
51654;SDS011;37732;53.106;7.030;2023-05-07T08:12:24;25.23;;;22.52;;
51654;SDS011;37732;53.106;7.030;2023-05-07T08:14:50;25.90;;;23.13;;
51654;SDS011;37732;53.106;7.030;2023-05-07T08:17:16;26.75;;;23.83;;
51654;SDS011;37732;53.106;7.030;2023-05-07T08:19:43;25.77;;;23.13;;
51654;SDS011;37732;53.106;7.030;2023-05-07T08:22:10;25.80;;;23.00;;
51654;SDS011;37732;53.106;7.030;2023-05-07T08:24:36;27.88;;;24.85;;
51654;SDS011;37732;53.106;7.030;2023-05-07T08:27:02;28.45;;;25.45;;
51654;SDS011;37732;53.106;7.030;2023-05-07T08:29:28;28.73;;;24.30;;
51654;SDS011;37732;53.106;7.030;2023-05-07T08:31:53;28.17;;;25.13;;
51654;SDS011;37732;53.106;7.030;2023-05-07T08:34:22;29.30;;;22.42;;
51654;SDS011;37732;53.106;7.030;2023-05-07T08:36:48;27.55;;;24.50;;
51654;SDS011;37732;53.106;7.030;2023-05-07T08:39:15;25.55;;;22.90;;
51654;SDS011;37732;53.106;7.030;2023-05-07T08:41:44;26.23;;;22.67;;
51654;SDS011;37732;53.106;7.030;2023-05-07T08:44:13;25.88;;;23.20;;
51654;SDS011;37732;53.106;7.030;2023-05-07T08:46:40;26.15;;;22.50;;
51654;SDS011;37732;53.106;7.030;2023-05-07T08:49:08;26.23;;;22.40;;
51654;SDS011;37732;53.106;7.030;2023-05-07T08:51:35;24.25;;;21.65;;
51654;SDS011;37732;53.106;7.030;2023-05-07T08:54:01;22.92;;;20.55;;
51654;SDS011;37732;53.106;7.030;2023-05-07T08:56:27;24.08;;;21.38;;
51654;SDS011;37732;53.106;7.030;2023-05-07T08:58:52;23.60;;;20.30;;
51654;SDS011;37732;53.106;7.030;2023-05-07T09:01:23;23.02;;;20.52;;
51654;SDS011;37732;53.106;7.030;2023-05-07T09:03:50;23.52;;;20.90;;
51654;SDS011;37732;53.106;7.030;2023-05-07T09:06:18;23.58;;;20.83;;
51654;SDS011;37732;53.106;7.030;2023-05-07T09:08:50;24.83;;;22.25;;
51654;SDS011;37732;53.106;7.030;2023-05-07T09:13:46;21.65;;;19.45;;
51654;SDS011;37732;53.106;7.030;2023-05-07T09:16:12;20.70;;;18.50;;
51654;SDS011;37732;53.106;7.030;2023-05-07T09:18:44;21.33;;;19.02;;
51654;SDS011;37732;53.106;7.030;2023-05-07T09:21:10;23.10;;;20.35;;
51654;SDS011;37732;53.106;7.030;2023-05-07T09:23:40;22.02;;;19.75;;
51654;SDS011;37732;53.106;7.030;2023-05-07T09:26:06;22.13;;;19.10;;
51654;SDS011;37732;53.106;7.030;2023-05-07T09:28:37;22.45;;;20.02;;
51654;SDS011;37732;53.106;7.030;2023-05-07T09:31:05;21.95;;;19.13;;
51654;SDS011;37732;53.106;7.030;2023-05-07T09:33:30;20.48;;;18.20;;
51654;SDS011;37732;53.106;7.030;2023-05-07T09:35:56;21.55;;;18.80;;
51654;SDS011;37732;53.106;7.030;2023-05-07T09:38:22;20.15;;;18.08;;
51654;SDS011;37732;53.106;7.030;2023-05-07T09:40:47;22.90;;;18.48;;
51654;SDS011;37732;53.106;7.030;2023-05-07T09:43:36;20.38;;;17.83;;
51654;SDS011;37732;53.106;7.030;2023-05-07T09:46:07;19.60;;;17.58;;
51654;SDS011;37732;53.106;7.030;2023-05-07T09:48:37;19.17;;;16.80;;
51654;SDS011;37732;53.106;7.030;2023-05-07T09:54:16;21.52;;;17.60;;
51654;SDS011;37732;53.106;7.030;2023-05-07T09:56:43;20.08;;;18.08;;
51654;SDS011;37732;53.106;7.030;2023-05-07T09:59:11;19.13;;;16.75;;
51654;SDS011;37732;53.106;7.030;2023-05-07T10:01:40;18.83;;;16.83;;
51654;SDS011;37732;53.106;7.030;2023-05-07T10:04:07;17.98;;;16.13;;
51654;SDS011;37732;53.106;7.030;2023-05-07T10:06:36;18.70;;;16.90;;
51654;SDS011;37732;53.106;7.030;2023-05-07T10:09:02;18.88;;;16.88;;
51654;SDS011;37732;53.106;7.030;2023-05-07T10:11:31;18.42;;;16.52;;
51654;SDS011;37732;53.106;7.030;2023-05-07T10:13:58;17.90;;;16.10;;
51654;SDS011;37732;53.106;7.030;2023-05-07T10:16:27;19.27;;;16.90;;
51654;SDS011;37732;53.106;7.030;2023-05-07T10:18:56;18.60;;;16.77;;
51654;SDS011;37732;53.106;7.030;2023-05-07T10:21:23;17.42;;;15.73;;
51654;SDS011;37732;53.106;7.030;2023-05-07T10:26:47;19.05;;;16.63;;
51654;SDS011;37732;53.106;7.030;2023-05-07T10:34:53;17.10;;;15.30;;
51654;SDS011;37732;53.106;7.030;2023-05-07T10:37:20;16.58;;;14.90;;
51654;SDS011;37732;53.106;7.030;2023-05-07T10:39:47;18.17;;;16.13;;
51654;SDS011;37732;53.106;7.030;2023-05-07T10:42:13;18.23;;;16.52;;
51654;SDS011;37732;53.106;7.030;2023-05-07T10:44:39;17.25;;;15.40;;
51654;SDS011;37732;53.106;7.030;2023-05-07T10:47:06;17.85;;;15.55;;
51654;SDS011;37732;53.106;7.030;2023-05-07T10:49:35;16.83;;;15.07;;
51654;SDS011;37732;53.106;7.030;2023-05-07T10:52:10;17.17;;;15.48;;
51654;SDS011;37732;53.106;7.030;2023-05-07T10:54:43;16.48;;;14.18;;
51654;SDS011;37732;53.106;7.030;2023-05-07T10:59:58;15.77;;;14.07;;
51654;SDS011;37732;53.106;7.030;2023-05-07T11:02:23;16.25;;;14.65;;
51654;SDS011;37732;53.106;7.030;2023-05-07T11:05:25;16.02;;;14.43;;
51654;SDS011;37732;53.106;7.030;2023-05-07T11:07:58;16.50;;;14.80;;
51654;SDS011;37732;53.106;7.030;2023-05-07T11:13:13;16.55;;;14.85;;
51654;SDS011;37732;53.106;7.030;2023-05-07T11:15:40;17.55;;;15.75;;
51654;SDS011;37732;53.106;7.030;2023-05-07T11:18:16;15.85;;;14.35;;
51654;SDS011;37732;53.106;7.030;2023-05-07T11:28:30;16.70;;;15.00;;
51654;SDS011;37732;53.106;7.030;2023-05-07T11:31:01;17.05;;;15.35;;
51654;SDS011;37732;53.106;7.030;2023-05-07T11:33:27;15.63;;;13.95;;
51654;SDS011;37732;53.106;7.030;2023-05-07T11:35:55;16.73;;;14.95;;
51654;SDS011;37732;53.106;7.030;2023-05-07T11:38:22;16.42;;;14.73;;
51654;SDS011;37732;53.106;7.030;2023-05-07T11:40:51;17.25;;;15.65;;
51654;SDS011;37732;53.106;7.030;2023-05-07T11:43:18;14.88;;;13.45;;
51654;SDS011;37732;53.106;7.030;2023-05-07T11:45:45;15.73;;;14.13;;
51654;SDS011;37732;53.106;7.030;2023-05-07T11:48:12;15.98;;;14.43;;
51654;SDS011;37732;53.106;7.030;2023-05-07T11:50:51;16.60;;;15.05;;
51654;SDS011;37732;53.106;7.030;2023-05-07T11:53:27;15.75;;;14.18;;
51654;SDS011;37732;53.106;7.030;2023-05-07T11:55:54;15.85;;;14.35;;
51654;SDS011;37732;53.106;7.030;2023-05-07T11:58:22;17.00;;;15.30;;
51654;SDS011;37732;53.106;7.030;2023-05-07T12:00:53;15.82;;;14.32;;
51654;SDS011;37732;53.106;7.030;2023-05-07T12:03:22;16.85;;;15.25;;
51654;SDS011;37732;53.106;7.030;2023-05-07T12:05:48;15.55;;;13.95;;
51654;SDS011;37732;53.106;7.030;2023-05-07T12:08:17;15.38;;;13.88;;
51654;SDS011;37732;53.106;7.030;2023-05-07T12:10:45;15.60;;;14.00;;
51654;SDS011;37732;53.106;7.030;2023-05-07T12:13:16;14.82;;;13.38;;
51654;SDS011;37732;53.106;7.030;2023-05-07T12:15:52;17.33;;;15.55;;
51654;SDS011;37732;53.106;7.030;2023-05-07T12:18:18;15.95;;;14.48;;
51654;SDS011;37732;53.106;7.030;2023-05-07T12:20:45;15.73;;;14.20;;
51654;SDS011;37732;53.106;7.030;2023-05-07T12:23:11;15.40;;;13.82;;
51654;SDS011;37732;53.106;7.030;2023-05-07T12:25:40;16.35;;;14.65;;
51654;SDS011;37732;53.106;7.030;2023-05-07T12:28:13;15.05;;;13.45;;
51654;SDS011;37732;53.106;7.030;2023-05-07T12:30:40;14.68;;;13.27;;
51654;SDS011;37732;53.106;7.030;2023-05-07T12:33:08;14.02;;;12.73;;
51654;SDS011;37732;53.106;7.030;2023-05-07T12:35:38;14.90;;;13.50;;
51654;SDS011;37732;53.106;7.030;2023-05-07T12:38:09;15.55;;;14.15;;
51654;SDS011;37732;53.106;7.030;2023-05-07T12:40:44;16.13;;;14.43;;
51654;SDS011;37732;53.106;7.030;2023-05-07T12:43:24;14.80;;;13.40;;
51654;SDS011;37732;53.106;7.030;2023-05-07T12:45:51;16.42;;;14.77;;
51654;SDS011;37732;53.106;7.030;2023-05-07T12:48:19;14.20;;;12.80;;
51654;SDS011;37732;53.106;7.030;2023-05-07T12:50:48;14.50;;;13.20;;
51654;SDS011;37732;53.106;7.030;2023-05-07T12:53:25;14.82;;;13.40;;
51654;SDS011;37732;53.106;7.030;2023-05-07T12:55:55;13.07;;;11.88;;
51654;SDS011;37732;53.106;7.030;2023-05-07T13:00:53;14.02;;;12.68;;
51654;SDS011;37732;53.106;7.030;2023-05-07T13:03:26;13.82;;;12.60;;
51654;SDS011;37732;53.106;7.030;2023-05-07T13:05:54;13.20;;;11.93;;
51654;SDS011;37732;53.106;7.030;2023-05-07T13:08:27;13.00;;;11.75;;
51654;SDS011;37732;53.106;7.030;2023-05-07T13:10:57;14.50;;;13.07;;
51654;SDS011;37732;53.106;7.030;2023-05-07T13:13:24;14.15;;;12.75;;
51654;SDS011;37732;53.106;7.030;2023-05-07T13:15:51;14.10;;;12.70;;
51654;SDS011;37732;53.106;7.030;2023-05-07T13:18:17;13.57;;;12.35;;
51654;SDS011;37732;53.106;7.030;2023-05-07T13:20:43;12.77;;;11.50;;
51654;SDS011;37732;53.106;7.030;2023-05-07T13:23:08;13.88;;;12.57;;
51654;SDS011;37732;53.106;7.030;2023-05-07T13:25:34;12.73;;;10.95;;
51654;SDS011;37732;53.106;7.030;2023-05-07T13:28:00;14.30;;;13.00;;
51654;SDS011;37732;53.106;7.030;2023-05-07T13:30:25;12.70;;;11.60;;
51654;SDS011;37732;53.106;7.030;2023-05-07T13:32:53;12.88;;;11.63;;
51654;SDS011;37732;53.106;7.030;2023-05-07T13:35:20;13.25;;;12.05;;
51654;SDS011;37732;53.106;7.030;2023-05-07T13:37:46;12.82;;;11.57;;
51654;SDS011;37732;53.106;7.030;2023-05-07T13:40:14;13.45;;;12.15;;
51654;SDS011;37732;53.106;7.030;2023-05-07T13:42:40;13.93;;;12.63;;
51654;SDS011;37732;53.106;7.030;2023-05-07T13:45:06;13.45;;;12.23;;
51654;SDS011;37732;53.106;7.030;2023-05-07T13:47:33;13.32;;;11.98;;
51654;SDS011;37732;53.106;7.030;2023-05-07T13:49:59;14.00;;;12.60;;
51654;SDS011;37732;53.106;7.030;2023-05-07T13:52:24;13.88;;;12.57;;
51654;SDS011;37732;53.106;7.030;2023-05-07T13:54:50;14.73;;;13.32;;
51654;SDS011;37732;53.106;7.030;2023-05-07T13:57:17;13.90;;;12.60;;
51654;SDS011;37732;53.106;7.030;2023-05-07T13:59:43;14.05;;;12.75;;
51654;SDS011;37732;53.106;7.030;2023-05-07T14:02:09;13.15;;;11.85;;
51654;SDS011;37732;53.106;7.030;2023-05-07T14:04:35;13.10;;;11.80;;
51654;SDS011;37732;53.106;7.030;2023-05-07T14:07:02;13.27;;;11.95;;
51654;SDS011;37732;53.106;7.030;2023-05-07T14:09:28;14.98;;;12.32;;
51654;SDS011;37732;53.106;7.030;2023-05-07T14:11:54;14.55;;;13.23;;
51654;SDS011;37732;53.106;7.030;2023-05-07T14:14:20;14.18;;;12.88;;
51654;SDS011;37732;53.106;7.030;2023-05-07T14:16:46;15.02;;;13.65;;
51654;SDS011;37732;53.106;7.030;2023-05-07T14:19:12;14.75;;;13.43;;
51654;SDS011;37732;53.106;7.030;2023-05-07T14:21:37;14.65;;;13.25;;
51654;SDS011;37732;53.106;7.030;2023-05-07T14:24:03;14.55;;;13.15;;
51654;SDS011;37732;53.106;7.030;2023-05-07T14:26:31;15.20;;;13.88;;
51654;SDS011;37732;53.106;7.030;2023-05-07T14:28:57;15.50;;;14.00;;
51654;SDS011;37732;53.106;7.030;2023-05-07T14:31:23;14.80;;;13.40;;
51654;SDS011;37732;53.106;7.030;2023-05-07T14:33:50;14.65;;;13.32;;
51654;SDS011;37732;53.106;7.030;2023-05-07T14:36:16;14.73;;;13.32;;
51654;SDS011;37732;53.106;7.030;2023-05-07T14:38:42;14.80;;;13.50;;
51654;SDS011;37732;53.106;7.030;2023-05-07T14:41:08;15.23;;;13.82;;
51654;SDS011;37732;53.106;7.030;2023-05-07T14:43:33;14.80;;;13.40;;
51654;SDS011;37732;53.106;7.030;2023-05-07T14:45:59;15.70;;;14.10;;
51654;SDS011;37732;53.106;7.030;2023-05-07T14:48:25;15.07;;;13.68;;
51654;SDS011;37732;53.106;7.030;2023-05-07T14:50:50;14.13;;;12.73;;